Time;durP1;ratioP1;P1;durP2;ratioP2;P2;SDS_P1;SDS_P2;PMS_P1;PMS_P2;Temp;Humidity;BMP_temperature;BMP_pressure;BME280_temperature;BME280_humidity;BME280_pressure;Samples;Min_cycle;Max_cycle;Signal;HPM_P1;HPM_P2
2022/08/12 01:50:35;;;;;;;;;;;;;;;;;;;;;
2022/08/12 02:54:08;;;;;;;1.00;0.70;;;17.00;99.90;;;;;;5089866;28;20046;-85
2022/08/12 03:01:32;;;;;;;1.60;0.70;;;16.90;99.90;;;;;;5125522;27;20107;-85
2022/08/12 03:09:50;;;;;;;1.75;0.95;;;16.90;99.90;;;;;;5127579;27;20128;-84
2022/08/12 03:38:15;;;;;;;1.23;0.70;;;16.70;99.90;;;;;;5131732;27;20045;-85
2022/08/12 04:04:37;;;;;;;2.15;0.60;;;16.50;99.90;;;;;;5107096;28;20113;-85
2022/08/12 04:08:11;;;;;;;1.60;0.82;;;16.40;99.90;;;;;;5104628;28;20061;-86
2022/08/12 04:18:37;;;;;;;1.30;0.70;;;16.40;99.90;;;;;;5112058;28;20391;-86
2022/08/12 04:21:57;;;;;;;1.70;0.90;;;16.40;99.90;;;;;;5106083;28;20055;-86
2022/08/12 04:25:09;;;;;;;1.45;0.80;;;16.30;99.90;;;;;;5109843;28;20070;-86
2022/08/12 04:28:57;;;;;;;1.10;0.80;;;16.30;99.90;;;;;;5106553;28;20041;-86
2022/08/12 04:32:18;;;;;;;1.65;0.70;;;16.30;99.90;;;;;;5101367;28;20059;-86
2022/08/12 04:35:51;;;;;;;1.33;0.70;;;16.30;99.90;;;;;;5091229;28;20076;-85
2022/08/12 04:42:50;;;;;;;1.48;1.10;;;16.30;99.90;;;;;;5106035;28;20040;-85
2022/08/12 04:46:25;;;;;;;3.58;1.00;;;16.20;99.90;;;;;;5104671;28;20051;-85
2022/08/12 04:49:39;;;;;;;1.42;0.68;;;16.20;99.90;;;;;;5103412;28;20403;-86
2022/08/12 05:07:33;;;;;;;1.23;0.60;;;16.30;99.90;;;;;;5097072;28;20036;-84
2022/08/12 05:11:16;;;;;;;2.17;0.77;;;16.30;99.90;;;;;;5133612;27;20050;-85
2022/08/12 05:14:56;;;;;;;1.27;0.80;;;16.30;99.90;;;;;;5065199;28;20097;-86
2022/08/12 05:18:03;;;;;;;1.50;0.80;;;16.40;99.90;;;;;;5055662;28;20445;-84
2022/08/12 05:24:48;;;;;;;1.23;0.80;;;16.50;99.90;;;;;;5067944;28;20083;-84
2022/08/12 05:28:04;;;;;;;1.38;0.80;;;16.50;99.90;;;;;;5057388;28;20118;-85
2022/08/12 05:39:21;;;;;;;1.27;0.60;;;16.80;99.90;;;;;;5029954;28;20099;-84
2022/08/12 05:42:54;;;;;;;1.08;0.60;;;17.00;99.90;;;;;;5030993;28;20056;-87
2022/08/12 05:53:44;;;;;;;2.20;0.80;;;17.40;99.90;;;;;;5072874;22;20079;-85
2022/08/12 06:08:57;;;;;;;1.65;0.80;;;18.30;99.90;;;;;;5075762;28;20139;-89
2022/08/12 06:15:50;;;;;;;3.83;1.00;;;18.70;99.90;;;;;;5001505;28;20046;-90
2022/08/12 06:18:56;;;;;;;2.45;1.30;;;18.90;99.90;;;;;;4968267;28;20077;-85
2022/08/12 06:21:55;;;;;;;1.50;0.90;;;19.10;99.90;;;;;;4970381;28;20047;-86
2022/08/12 06:24:45;;;;;;;1.92;1.10;;;19.20;99.90;;;;;;4958862;28;20074;-85
2022/08/12 06:27:17;;;;;;;1.60;0.90;;;19.40;99.90;;;;;;4946099;28;20475;-86
2022/08/12 06:30:40;;;;;;;1.23;0.70;;;19.70;99.90;;;;;;4955805;28;20055;-92
2022/08/12 06:37:44;;;;;;;2.08;1.40;;;19.80;99.90;;;;;;4974875;28;20098;-86
2022/08/12 06:44:44;;;;;;;1.67;0.75;;;20.20;99.90;;;;;;4964820;28;20095;-87
2022/08/12 06:48:10;;;;;;;1.35;0.90;;;20.40;99.90;;;;;;4944344;28;20090;-85
2022/08/12 06:51:35;;;;;;;2.50;0.90;;;20.60;99.90;;;;;;4975733;28;20402;-85
2022/08/12 06:54:44;;;;;;;3.25;1.00;;;20.70;99.90;;;;;;5049723;28;20044;-89
2022/08/12 07:02:29;;;;;;;;;;;;;;;;;;;;;
2022/08/12 07:13:39;;;;;;;1.20;0.65;;;21.70;99.90;;;;;;4962620;28;20211;-88
2022/08/12 07:25:29;;;;;;;1.27;0.60;;;22.50;99.90;;;;;;4967382;28;20544;-89
2022/08/12 07:33:03;;;;;;;;;;;;;;;;;;;;;
2022/08/12 07:36:32;;;;;;;0.80;0.40;;;23.20;99.90;;;;;;4893980;29;20606;-88
2022/08/12 07:43:41;;;;;;;1.65;0.70;;;23.60;99.90;;;;;;4930558;29;20047;-88
2022/08/12 07:50:52;;;;;;;1.10;0.93;;;24.00;99.90;;;;;;5039142;28;20127;-89
2022/08/12 07:54:11;;;;;;;;;;;;;;;;;;;;;
2022/08/12 08:05:30;;;;;;;1.83;0.93;;;24.80;99.90;;;;;;5067136;28;20098;-89
2022/08/12 08:54:57;;;;;;;1.35;0.75;;;27.60;97.70;;;;;;4943793;28;20423;-91
2022/08/12 08:57:26;;;;;;;1.67;1.00;;;27.70;97.50;;;;;;4957843;28;20035;-88
2022/08/12 08:59:59;;;;;;;0.95;0.70;;;27.80;97.20;;;;;;4948655;29;20146;-88
2022/08/12 09:02:31;;;;;;;2.95;0.90;;;28.00;97.50;;;;;;4956036;29;20050;-89
2022/08/12 09:05:07;;;;;;;;;;;28.10;96.40;;;;;;4957542;29;20048;-89
2022/08/12 09:08:09;;;;;;;2.65;0.80;;;28.20;96.40;;;;;;4956881;29;19922;-89
2022/08/12 09:10:42;;;;;;;1.35;0.80;;;28.40;95.90;;;;;;4941710;29;20102;-90
2022/08/12 09:13:33;;;;;;;1.35;0.70;;;28.50;96.00;;;;;;4940883;29;20142;-89
2022/08/12 09:16:16;;;;;;;3.03;0.82;;;28.60;95.50;;;;;;4925695;29;20043;-89
2022/08/12 09:18:47;;;;;;;1.40;0.82;;;28.70;96.90;;;;;;4941544;29;20059;-90
2022/08/12 09:21:24;;;;;;;4.13;0.77;;;28.90;94.70;;;;;;4958924;29;20117;-89
2022/08/12 09:23:59;;;;;;;1.40;0.75;;;29.00;94.20;;;;;;4960306;29;20049;-89
2022/08/12 09:26:45;;;;;;;;;;;29.10;95.10;;;;;;5015256;28;20058;-88
2022/08/12 09:29:57;;;;;;;3.10;0.90;;;29.20;92.30;;;;;;5000289;28;19921;-90
2022/08/12 09:33:25;;;;;;;;;;;;;;;;;;;;;
2022/08/12 09:35:56;;;;;;;1.45;0.98;;;29.30;91.20;;;;;;4976414;28;20127;-88
2022/08/12 09:39:00;;;;;;;2.25;0.90;;;29.50;91.30;;;;;;4976208;28;20460;-88
2022/08/12 09:45:33;;;;;;;;;;;;;;;;;;;;;
2022/08/12 09:56:36;;;;;;;;;;;;;;;;;;;;;
2022/08/12 10:06:07;;;;;;;1.13;0.80;;;30.50;81.00;;;;;;5047684;28;20060;-89
2022/08/12 10:09:02;;;;;;;0.60;0.50;;;30.70;81.90;;;;;;5054416;28;20053;-88
2022/08/12 10:15:41;;;;;;;;;;;;;;;;;;;;;
2022/08/12 10:19:11;;;;;;;3.70;0.60;;;30.80;77.60;;;;;;4958480;28;20508;-85
2022/08/12 10:32:58;;;;;;;2.90;0.90;;;31.50;75.90;;;;;;4919214;29;20188;-87
2022/08/12 10:35:34;;;;;;;1.83;0.90;;;31.30;75.70;;;;;;4937324;29;20070;-87
2022/08/12 10:38:01;;;;;;;1.90;0.77;;;31.50;76.80;;;;;;4936151;29;20147;-84
2022/08/12 10:43:39;;;;;;;0.75;0.70;;;31.50;74.00;;;;;;4923369;29;20676;-86
2022/08/12 10:43:41;;;;;;;1.65;0.73;;;31.50;76.20;;;;;;4925741;29;20052;-85
2022/08/12 10:46:15;;;;;;;1.48;0.75;;;31.50;75.70;;;;;;4938912;29;20126;-86
2022/08/12 10:48:46;;;;;;;;;;;31.60;74.30;;;;;;4940438;29;20064;-84
2022/08/12 10:51:30;;;;;;;1.40;0.80;;;31.80;76.70;;;;;;4922799;29;19951;-85
2022/08/12 10:54:05;;;;;;;2.65;0.63;;;31.90;73.30;;;;;;4943625;28;20051;-84
2022/08/12 10:56:36;;;;;;;1.42;0.70;;;31.90;75.10;;;;;;4980097;28;20050;-87
2022/08/12 10:59:20;;;;;;;0.95;0.70;;;31.90;72.90;;;;;;5032181;28;20456;-90
2022/08/12 11:02:00;;;;;;;0.90;0.68;;;31.90;73.80;;;;;;5056420;28;20080;-85
2022/08/12 11:04:29;;;;;;;2.03;0.85;;;32.00;73.30;;;;;;5055573;28;20049;-85
2022/08/12 11:06:59;;;;;;;0.90;0.70;;;32.00;71.10;;;;;;5056757;28;20493;-86
2022/08/12 11:09:44;;;;;;;1.58;0.70;;;32.10;70.70;;;;;;5053057;28;20123;-86
2022/08/12 11:12:20;;;;;;;1.33;0.70;;;32.10;71.10;;;;;;5036944;28;20087;-85
2022/08/12 11:14:58;;;;;;;0.90;0.60;;;32.30;70.20;;;;;;5036290;28;20048;-85
2022/08/12 11:17:32;;;;;;;1.02;0.60;;;32.40;71.20;;;;;;5054231;28;20045;-85
2022/08/12 11:20:04;;;;;;;4.20;0.82;;;32.50;68.70;;;;;;5053823;28;20041;-87
2022/08/12 11:22:36;;;;;;;0.73;0.65;;;32.40;66.70;;;;;;5052246;28;20136;-86
2022/08/12 11:25:11;;;;;;;1.95;0.60;;;32.50;66.10;;;;;;5053238;28;20090;-87
2022/08/12 11:27:41;;;;;;;;;;;32.50;65.80;;;;;;5052966;28;20387;-87
2022/08/12 11:30:41;;;;;;;1.23;0.60;;;32.60;68.60;;;;;;5030554;28;19921;-86
2022/08/12 12:24:59;;;;;;;;;;;;;;;;;;;;;
2022/08/12 12:56:40;;;;;;;0.80;0.50;;;34.50;55.70;;;;;;5295925;23;20050;-89
2022/08/12 12:59:17;;;;;;;2.33;0.50;;;34.50;55.70;;;;;;4870562;29;20163;-89
2022/08/12 13:02:03;;;;;;;0.63;0.50;;;34.50;56.50;;;;;;4869491;29;20097;-88
2022/08/12 13:04:36;;;;;;;1.73;1.15;;;34.50;60.20;;;;;;4853003;29;20116;-87
2022/08/12 13:15:24;;;;;;;;;;;;;;;;;;;;;
2022/08/12 13:30:05;;;;;;;3.58;0.70;;;34.20;60.30;;;;;;5529802;23;20068;-91
2022/08/12 13:33:34;;;;;;;;;;;;;;;;;;;;;
2022/08/12 14:01:42;;;;;;;0.63;0.50;;;33.60;60.20;;;;;;4805556;23;20113;-87
2022/08/12 14:04:25;;;;;;;1.35;0.70;;;33.80;61.40;;;;;;4847123;29;20049;-86
2022/08/12 14:06:54;;;;;;;1.08;0.60;;;33.60;61.90;;;;;;4877257;29;20041;-88
2022/08/12 14:09:27;;;;;;;3.17;0.70;;;33.50;62.60;;;;;;4875116;29;20128;-87
2022/08/12 14:11:58;;;;;;;2.10;0.60;;;33.40;64.20;;;;;;4867193;23;20071;-86
2022/08/12 14:15:09;;;;;;;2.08;0.68;;;33.50;64.10;;;;;;4870221;29;20053;-86
2022/08/12 14:17:50;;;;;;;2.22;0.63;;;33.30;63.00;;;;;;4841425;29;20116;-88
2022/08/12 14:20:32;;;;;;;1.67;0.80;;;33.50;63.20;;;;;;4868137;29;20044;-87
2022/08/12 14:23:03;;;;;;;1.88;0.80;;;33.60;63.70;;;;;;4866110;29;20068;-88
2022/08/12 14:25:38;;;;;;;1.63;0.75;;;33.50;63.60;;;;;;4868265;29;20045;-90
2022/08/12 14:28:10;;;;;;;2.17;0.70;;;33.40;63.80;;;;;;4866306;29;20057;-87
2022/08/12 14:31:25;;;;;;;1.27;0.75;;;33.40;61.70;;;;;;4862255;29;20050;-86
2022/08/12 14:41:41;;;;;;;1.55;0.70;;;32.90;63.00;;;;;;4851603;29;20088;-86
2022/08/12 14:45:11;;;;;;;2.70;0.60;;;33.10;63.10;;;;;;4849060;29;20063;-86
2022/08/12 15:03:11;;;;;;;1.40;0.63;;;33.30;61.60;;;;;;4803145;29;20533;-87
2022/08/12 15:06:26;;;;;;;1.30;0.80;;;33.30;63.20;;;;;;4793178;29;20091;-87
2022/08/12 15:09:51;;;;;;;2.70;0.88;;;32.90;62.10;;;;;;4786876;29;20063;-86
2022/08/12 15:13:21;;;;;;;0.88;0.52;;;33.20;62.20;;;;;;4804013;29;20182;-86
2022/08/12 15:16:47;;;;;;;1.00;0.50;;;33.20;63.60;;;;;;4801579;29;20078;-88
2022/08/12 15:20:18;;;;;;;2.38;0.80;;;32.90;62.90;;;;;;4760024;29;20063;-86
2022/08/12 15:27:20;;;;;;;;;;;;;;;;;;;;;
2022/08/12 15:30:57;;;;;;;2.22;0.80;;;32.70;64.20;;;;;;4876058;29;20050;-90
2022/08/12 15:34:41;;;;;;;4.55;0.60;;;32.70;66.30;;;;;;4888849;29;20037;-91
2022/08/12 15:38:36;;;;;;;;;;;;;;;;;;;;;
2022/08/12 15:42:04;;;;;;;4.15;0.90;;;32.30;67.90;;;;;;4844826;29;20045;-86
2022/08/12 15:53:17;;;;;;;;;;;;;;;;;;;;;
2022/08/12 15:56:38;;;;;;;;;;;;;;;;;;;;;
2022/08/12 16:00:16;;;;;;;1.25;0.85;;;31.70;68.90;;;;;;4801720;29;20050;-87
2022/08/12 16:07:48;;;;;;;;;;;;;;;;;;;;;
2022/08/12 16:19:18;;;;;;;;;;;;;;;;;;;;;
2022/08/12 16:27:05;;;;;;;2.25;0.70;;;30.40;73.20;;;;;;4855839;29;20095;-88
2022/08/12 16:31:18;;;;;;;;;;;;;;;;;;;;;
2022/08/12 16:46:41;;;;;;;2.17;0.90;;;29.30;74.20;;;;;;4860367;29;20585;-90
2022/08/12 16:50:25;;;;;;;3.80;0.73;;;29.10;74.40;;;;;;4809311;29;20045;-89
2022/08/12 16:54:10;;;;;;;1.55;0.68;;;29.10;75.50;;;;;;4843107;29;20132;-87
2022/08/12 17:04:45;;;;;;;1.98;0.70;;;28.60;75.80;;;;;;4794100;29;20431;-86
2022/08/12 17:08:23;;;;;;;2.05;0.60;;;28.50;76.20;;;;;;4815037;29;20400;-87
2022/08/12 17:11:59;;;;;;;1.08;0.70;;;28.50;76.50;;;;;;4815584;29;20154;-87
2022/08/12 17:18:49;;;;;;;0.80;0.47;;;28.40;77.70;;;;;;4839483;29;20127;-87
2022/08/12 17:26:23;;;;;;;;;;;;;;;;;;;;;
2022/08/12 17:30:01;;;;;;;1.60;0.80;;;28.10;78.50;;;;;;4770583;29;20075;-86
2022/08/12 17:33:35;;;;;;;1.60;0.70;;;28.10;77.10;;;;;;4762830;30;20056;-86
2022/08/12 17:37:11;;;;;;;1.38;0.70;;;28.00;77.40;;;;;;4762625;30;20141;-86
2022/08/12 17:41:13;;;;;;;3.13;0.60;;;27.90;77.60;;;;;;4751352;30;20067;-87
2022/08/12 17:55:10;;;;;;;2.38;0.50;;;27.40;79.80;;;;;;4749072;30;20114;-87
2022/08/12 17:58:44;;;;;;;1.40;0.40;;;27.30;80.50;;;;;;4745776;30;20048;-87
2022/08/12 18:06:29;;;;;;;3.05;0.60;;;27.10;81.10;;;;;;4795693;30;20054;-90
2022/08/12 18:13:28;;;;;;;0.90;0.50;;;26.80;81.70;;;;;;4793023;30;20057;-91
2022/08/12 18:17:19;;;;;;;5.53;0.65;;;26.70;82.30;;;;;;4723998;30;20102;-92
2022/08/12 18:24:29;;;;;;;1.00;0.50;;;26.40;82.10;;;;;;4718199;30;20136;-87
2022/08/12 18:28:23;;;;;;;1.02;0.60;;;26.30;82.00;;;;;;4732266;30;20065;-87
2022/08/12 18:34:47;;;;;;;1.40;0.70;;;26.00;82.30;;;;;;4595184;31;20156;-87
2022/08/12 18:38:23;;;;;;;1.13;0.60;;;25.90;82.60;;;;;;4564365;31;20183;-91
2022/08/12 18:42:36;;;;;;;;;;;;;;;;;;;;;
2022/08/12 18:45:18;;;;;;;1.58;0.45;;;25.60;83.20;;;;;;4638890;30;20510;-93
2022/08/12 18:48:10;;;;;;;3.25;0.50;;;25.40;83.20;;;;;;4656971;30;20067;-90
2022/08/12 18:50:49;;;;;;;0.75;0.40;;;25.30;83.60;;;;;;4657328;30;20051;-93
2022/08/12 18:53:34;;;;;;;2.97;0.60;;;25.20;84.00;;;;;;4652742;30;20059;-91
2022/08/12 18:56:06;;;;;;;1.43;0.50;;;25.10;84.10;;;;;;4651509;30;20556;-90
2022/08/12 18:58:45;;;;;;;1.05;0.43;;;25.00;84.30;;;;;;4669745;30;20061;-89
2022/08/12 19:01:37;;;;;;;1.10;0.50;;;24.90;84.60;;;;;;4654095;30;20469;-89
2022/08/12 19:04:21;;;;;;;0.40;0.40;;;24.80;84.50;;;;;;4669396;30;20073;-87
2022/08/12 19:07:20;;;;;;;0.43;0.30;;;24.70;85.50;;;;;;4686309;30;20184;-89
2022/08/12 19:10:03;;;;;;;0.57;0.40;;;24.60;85.90;;;;;;4768977;30;20050;-87
2022/08/12 19:15:39;;;;;;;3.60;0.40;;;24.60;86.80;;;;;;4808209;29;20050;-87
2022/08/12 19:18:26;;;;;;;0.90;0.50;;;24.30;86.90;;;;;;4855635;29;20055;-88
2022/08/12 19:21:09;;;;;;;1.23;0.45;;;24.10;87.00;;;;;;4872144;29;20056;-87
2022/08/12 19:26:41;;;;;;;0.60;0.50;;;23.90;88.10;;;;;;4804198;29;20095;-89
2022/08/12 19:29:11;;;;;;;1.83;0.50;;;23.80;88.20;;;;;;4804133;29;20058;-88
2022/08/12 19:31:49;;;;;;;0.75;0.50;;;23.70;88.50;;;;;;4770854;30;20047;-88
2022/08/12 19:34:23;;;;;;;0.70;0.50;;;23.60;89.20;;;;;;4796492;29;20054;-88
2022/08/12 19:36:55;;;;;;;1.63;0.75;;;23.50;89.60;;;;;;4803178;29;20066;-88
2022/08/12 19:39:25;;;;;;;3.60;0.55;;;23.40;90.00;;;;;;4788060;29;20063;-87
2022/08/12 19:41:57;;;;;;;2.42;0.50;;;23.30;90.10;;;;;;4797502;29;20430;-86
2022/08/12 19:44:27;;;;;;;0.85;0.50;;;23.20;90.30;;;;;;4803447;29;20058;-86
2022/08/12 19:47:02;;;;;;;1.15;0.60;;;23.10;90.50;;;;;;4803060;29;20534;-85
2022/08/12 19:49:28;;;;;;;1.37;0.53;;;23.00;90.60;;;;;;4781298;30;20071;-85
2022/08/12 19:51:55;;;;;;;0.75;0.50;;;22.90;90.80;;;;;;4792807;29;20059;-86
2022/08/12 19:54:21;;;;;;;3.95;0.73;;;22.80;91.00;;;;;;4781825;29;20050;-87
2022/08/12 19:56:56;;;;;;;0.70;0.50;;;22.80;91.20;;;;;;4796269;29;20618;-88
2022/08/12 19:59:34;;;;;;;0.90;0.47;;;22.70;91.40;;;;;;4790173;29;20051;-87
2022/08/12 20:02:18;;;;;;;1.45;0.70;;;22.60;91.60;;;;;;4780012;29;20066;-88
2022/08/12 20:04:56;;;;;;;0.80;0.50;;;22.60;91.90;;;;;;4882486;29;20471;-87
2022/08/12 20:07:34;;;;;;;2.55;0.40;;;22.50;92.20;;;;;;4890417;29;20040;-87
2022/08/12 20:10:10;;;;;;;1.00;0.60;;;22.40;92.50;;;;;;4888817;29;20070;-87
2022/08/12 20:12:46;;;;;;;0.70;0.50;;;22.40;92.70;;;;;;4870371;29;20069;-86
2022/08/12 20:15:24;;;;;;;0.73;0.52;;;22.30;92.90;;;;;;4864505;29;20063;-87
2022/08/12 20:17:59;;;;;;;0.77;0.60;;;22.20;93.20;;;;;;4873573;29;20040;-87
2022/08/12 20:20:33;;;;;;;1.45;0.50;;;22.10;93.50;;;;;;4876852;29;20053;-88
2022/08/12 20:23:11;;;;;;;0.98;0.50;;;22.00;93.70;;;;;;4869881;29;20056;-88
2022/08/12 20:25:56;;;;;;;0.98;0.43;;;22.00;93.90;;;;;;4870034;29;20053;-88
2022/08/12 20:28:32;;;;;;;0.85;0.50;;;21.90;94.10;;;;;;4870562;29;20119;-88
2022/08/12 20:31:07;;;;;;;2.13;0.60;;;21.80;94.20;;;;;;4871323;29;20052;-88
2022/08/12 20:33:42;;;;;;;0.60;0.40;;;21.80;94.50;;;;;;4884826;29;20409;-87
2022/08/12 20:36:23;;;;;;;1.02;0.40;;;21.70;94.70;;;;;;4870103;29;20080;-88
2022/08/12 20:40:02;;;;;;;0.85;0.50;;;21.70;94.80;;;;;;4855959;29;20052;-91
2022/08/12 20:47:55;;;;;;;1.25;0.63;;;21.50;95.20;;;;;;4844589;29;20065;-89
2022/08/12 21:00:28;;;;;;;;;;;;;;;;;;;;;
2022/08/12 21:16:53;;;;;;;1.52;0.60;;;20.90;97.30;;;;;;4804202;29;20436;-89
2022/08/12 21:26:59;;;;;;;2.28;0.50;;;20.80;98.20;;;;;;4797475;29;20115;-90
2022/08/12 21:30:00;;;;;;;0.60;0.50;;;20.70;98.30;;;;;;4780699;29;20089;-90
2022/08/12 21:32:56;;;;;;;1.63;0.55;;;20.60;98.40;;;;;;4801387;29;20610;-90
2022/08/12 21:39:56;;;;;;;0.85;0.50;;;20.60;98.80;;;;;;4778206;29;20498;-90
2022/08/12 21:42:34;;;;;;;0.70;0.40;;;20.50;99.00;;;;;;4784133;29;20058;-89
2022/08/12 21:45:41;;;;;;;1.15;0.35;;;20.50;99.00;;;;;;4805202;29;20077;-89
2022/08/12 21:48:31;;;;;;;2.20;0.43;;;20.30;99.10;;;;;;4746601;30;20111;-88
2022/08/12 21:59:04;;;;;;;;;;;;;;;;;;;;;
